createdAt,value
2018-07-01T00:00:17.858Z,93.61
2018-07-01T00:02:45.897Z,93.35
2018-07-01T00:05:13.959Z,93.96
2018-07-01T00:07:42.098Z,93.17
2018-07-01T00:10:10.663Z,94.33
2018-07-01T00:12:38.951Z,91.77
2018-07-01T00:15:08.078Z,92.41
2018-07-01T00:17:36.872Z,93.57
2018-07-01T00:20:06.162Z,93.81
2018-07-01T00:22:34.331Z,94.31
2018-07-01T00:25:02.459Z,93.75
2018-07-01T00:27:30.918Z,92.85
2018-07-01T00:29:59.021Z,91.84
2018-07-01T00:32:27.493Z,91.03
2018-07-01T00:34:55.939Z,91.13
2018-07-01T00:37:24.107Z,89.33
2018-07-01T00:39:53.983Z,85.73
2018-07-01T00:42:21.972Z,87.53
2018-07-01T00:44:49.986Z,88.28
2018-07-01T00:47:18.334Z,88.90
2018-07-01T00:49:46.416Z,84.42
2018-07-01T00:52:14.604Z,85.94
2018-07-01T00:54:42.634Z,87.78
2018-07-01T00:57:10.611Z,87.15
2018-07-01T00:59:38.635Z,86.90
2018-07-01T01:02:06.846Z,86.56
2018-07-01T01:04:34.918Z,87.86
2018-07-01T01:07:02.928Z,88.57
2018-07-01T01:09:30.867Z,89.27
2018-07-01T01:11:58.908Z,88.91
2018-07-01T01:14:26.871Z,88.46
2018-07-01T01:16:54.896Z,88.09
2018-07-01T01:19:22.975Z,88.70
2018-07-01T01:21:50.923Z,88.98
2018-07-01T01:24:18.890Z,88.87
2018-07-01T01:26:47.326Z,86.94
2018-07-01T01:29:15.334Z,85.00
2018-07-01T01:31:43.234Z,79.75
2018-07-01T01:34:11.416Z,83.52
2018-07-01T01:36:40.951Z,81.72
2018-07-01T01:39:12.431Z,82.33
2018-07-01T01:41:49.077Z,75.32
2018-07-01T01:44:23.435Z,80.52
2018-07-01T01:46:56.877Z,73.07
2018-07-01T01:49:33.558Z,81.86
2018-07-01T01:52:06.363Z,75.40
2018-07-01T01:55:42.577Z,74.56
2018-07-01T01:58:27.962Z,73.82
2018-07-01T02:01:00.698Z,71.55
2018-07-01T02:03:34.707Z,71.86
2018-07-01T02:06:09.481Z,72.70
2018-07-01T02:08:42.357Z,71.80
2018-07-01T02:11:10.475Z,71.11
2018-07-01T02:13:40.831Z,68.63
2018-07-01T02:16:13.090Z,70.99
2018-07-01T02:18:41.480Z,70.63
2018-07-01T02:21:09.828Z,70.89
2018-07-01T02:23:46.355Z,71.68
2018-07-01T02:26:14.479Z,75.04
2018-07-01T02:28:42.630Z,75.46
2018-07-01T02:31:10.584Z,74.25
2018-07-01T02:33:38.628Z,79.83
2018-07-01T02:36:06.624Z,80.29
2018-07-01T02:38:34.640Z,81.61
2018-07-01T02:41:02.733Z,82.74
2018-07-01T02:43:30.718Z,81.65
2018-07-01T02:45:58.736Z,77.22
2018-07-01T02:48:26.733Z,74.60
2018-07-01T02:50:54.918Z,70.65
2018-07-01T02:53:23.013Z,68.34
2018-07-01T02:55:51.036Z,65.38
2018-07-01T02:58:18.994Z,64.65
2018-07-01T03:00:46.973Z,63.59
2018-07-01T03:03:14.988Z,61.61
2018-07-01T03:05:43.311Z,60.39
2018-07-01T03:08:11.286Z,60.35
2018-07-01T03:10:39.279Z,57.95
2018-07-01T03:13:07.288Z,57.19
2018-07-01T03:15:35.292Z,53.94
2018-07-01T03:18:04.006Z,53.41
2018-07-01T03:20:32.158Z,53.50
2018-07-01T03:23:00.118Z,49.54
2018-07-01T03:25:28.112Z,49.15
2018-07-01T03:27:56.070Z,49.87
2018-07-01T03:30:24.078Z,49.21
2018-07-01T03:32:52.050Z,47.55
2018-07-01T03:35:20.042Z,46.24
2018-07-01T03:37:47.992Z,47.04
2018-07-01T03:40:16.000Z,46.15
2018-07-01T03:42:44.106Z,44.00
2018-07-01T03:45:12.878Z,45.31
2018-07-01T03:47:40.987Z,45.40
2018-07-01T03:50:09.293Z,45.03
2018-07-01T03:52:37.288Z,44.78
2018-07-01T03:55:05.769Z,45.06
2018-07-01T03:57:34.010Z,44.55
2018-07-01T04:00:01.970Z,46.42
2018-07-01T04:02:29.985Z,45.80
2018-07-01T04:04:58.267Z,45.61
2018-07-01T04:07:26.714Z,45.78
2018-07-01T04:09:54.718Z,45.87
2018-07-01T04:12:22.715Z,47.05
2018-07-01T04:14:50.734Z,46.95
2018-07-01T04:17:18.743Z,47.39
2018-07-01T04:19:46.829Z,47.54
2018-07-01T04:22:14.798Z,47.92
2018-07-01T04:24:42.867Z,47.41
2018-07-01T04:27:10.837Z,47.61
2018-07-01T04:29:38.822Z,47.74
2018-07-01T04:32:06.915Z,48.66
2018-07-01T04:34:35.516Z,49.36
2018-07-01T04:37:03.554Z,48.18
2018-07-01T04:39:31.618Z,48.54
2018-07-01T04:41:59.684Z,48.51
2018-07-01T04:44:27.701Z,49.35
2018-07-01T04:46:55.680Z,49.15
2018-07-01T04:49:23.709Z,48.55
2018-07-01T04:51:52.000Z,49.11
2018-07-01T04:54:20.012Z,49.96
2018-07-01T04:56:47.950Z,49.41
2018-07-01T04:59:16.311Z,49.56
2018-07-01T05:01:44.257Z,49.42
2018-07-01T05:04:12.719Z,48.66
2018-07-01T05:06:40.741Z,49.20
2018-07-01T05:09:11.852Z,49.64
2018-07-01T05:11:40.375Z,50.31
2018-07-01T05:14:08.704Z,50.42
2018-07-01T05:16:37.644Z,50.82
2018-07-01T05:19:06.636Z,51.18
2018-07-01T05:21:34.767Z,51.16
2018-07-01T05:24:02.842Z,52.35
2018-07-01T05:26:31.052Z,52.48
2018-07-01T05:28:59.708Z,51.93
2018-07-01T05:31:27.776Z,52.83
2018-07-01T05:33:56.557Z,53.16
2018-07-01T05:36:24.616Z,53.19
2018-07-01T05:38:53.343Z,54.22
2018-07-01T05:41:21.987Z,53.46
2018-07-01T05:43:49.965Z,53.71
2018-07-01T05:46:18.068Z,53.13
2018-07-01T05:48:46.259Z,53.76
2018-07-01T05:51:14.799Z,54.00
2018-07-01T05:53:42.921Z,54.30
2018-07-01T05:56:10.990Z,54.62
2018-07-01T05:58:40.166Z,55.21
2018-07-01T06:01:08.348Z,54.42
2018-07-01T06:03:36.562Z,55.39
2018-07-01T06:06:04.864Z,55.82
2018-07-01T06:08:32.933Z,55.72
2018-07-01T06:11:00.969Z,55.83
2018-07-01T06:13:28.929Z,56.38
2018-07-01T06:15:57.433Z,56.19
2018-07-01T06:18:26.196Z,56.30
2018-07-01T06:20:54.856Z,56.07
2018-07-01T06:23:23.347Z,56.84
2018-07-01T06:25:52.356Z,57.04
2018-07-01T06:28:20.434Z,55.41
2018-07-01T06:30:49.205Z,56.59
2018-07-01T06:33:17.187Z,56.45
2018-07-01T06:35:45.454Z,56.05
2018-07-01T06:38:13.498Z,56.90
2018-07-01T06:40:42.210Z,56.58
2018-07-01T06:43:10.463Z,55.14
2018-07-01T06:45:38.680Z,55.49
2018-07-01T06:48:06.948Z,55.37
2018-07-01T06:50:35.318Z,54.32
2018-07-01T06:53:03.980Z,51.37
2018-07-01T06:55:32.304Z,53.17
2018-07-01T06:58:00.592Z,52.97
2018-07-01T07:00:28.676Z,52.80
2018-07-01T07:02:56.788Z,52.46
2018-07-01T07:05:24.807Z,52.29
2018-07-01T07:07:54.286Z,52.42
2018-07-01T07:10:22.375Z,51.84
2018-07-01T07:12:50.360Z,52.85
2018-07-01T07:15:18.449Z,51.80
2018-07-01T07:17:50.194Z,52.21
2018-07-01T07:20:18.240Z,51.71
2018-07-01T07:22:46.799Z,52.78
2018-07-01T07:25:14.887Z,52.72
2018-07-01T07:27:43.092Z,51.75
2018-07-01T07:30:11.351Z,50.91
2018-07-01T07:32:39.638Z,51.29
2018-07-01T07:35:08.122Z,51.13
2018-07-01T07:37:36.673Z,51.44
2018-07-01T07:40:04.770Z,52.65
2018-07-01T07:42:33.395Z,50.96
2018-07-01T07:45:01.655Z,50.98
2018-07-01T07:47:29.534Z,51.79
2018-07-01T07:49:58.054Z,50.88
2018-07-01T07:52:26.033Z,50.45
2018-07-01T07:54:54.472Z,49.36
2018-07-01T07:57:22.504Z,49.14
2018-07-01T07:59:50.447Z,48.47
2018-07-01T08:02:18.558Z,47.65
2018-07-01T08:04:46.501Z,48.14
2018-07-01T08:07:14.960Z,47.83
2018-07-01T08:09:42.940Z,47.21
2018-07-01T08:12:10.967Z,48.12
2018-07-01T08:14:39.917Z,47.56
2018-07-01T08:17:08.205Z,47.94
2018-07-01T08:19:36.671Z,46.09
2018-07-01T08:22:04.787Z,46.83
2018-07-01T08:24:32.881Z,48.16
2018-07-01T08:27:00.952Z,47.40
2018-07-01T08:29:28.944Z,47.02
2018-07-01T08:31:56.985Z,46.35
2018-07-01T08:34:25.560Z,47.19
2018-07-01T08:36:54.586Z,46.97
2018-07-01T08:39:22.610Z,47.25
2018-07-01T08:42:31.809Z,47.19
2018-07-01T08:45:01.036Z,46.86
2018-07-01T08:47:29.444Z,45.50
2018-07-01T08:49:57.599Z,46.23
2018-07-01T08:52:26.065Z,47.08
2018-07-01T08:54:54.560Z,47.28
2018-07-01T08:57:24.182Z,45.43
2018-07-01T08:59:52.193Z,46.02
2018-07-01T09:02:20.959Z,46.58
2018-07-01T09:04:49.930Z,47.15
2018-07-01T09:07:18.412Z,47.43
2018-07-01T09:09:46.890Z,47.63
2018-07-01T09:12:15.160Z,46.06
2018-07-01T09:14:43.091Z,46.43
2018-07-01T09:17:11.344Z,45.69
2018-07-01T09:19:39.318Z,45.97
2018-07-01T09:22:07.565Z,46.50
2018-07-01T09:24:36.087Z,45.72
2018-07-01T09:27:04.459Z,45.95
2018-07-01T09:29:32.463Z,44.11
2018-07-01T09:32:00.486Z,45.42
2018-07-01T09:34:29.056Z,45.79
2018-07-01T09:36:57.444Z,43.72
2018-07-01T09:39:26.305Z,44.47
2018-07-01T09:41:55.816Z,43.99
2018-07-01T09:44:23.844Z,43.16
2018-07-01T09:46:51.827Z,43.77
2018-07-01T09:49:19.832Z,44.08
2018-07-01T09:51:48.791Z,43.74
2018-07-01T09:54:17.402Z,44.06
2018-07-01T09:56:45.580Z,44.08
2018-07-01T09:59:14.035Z,44.61
2018-07-01T10:01:42.063Z,44.29
2018-07-01T10:04:10.490Z,43.59
2018-07-01T10:06:38.426Z,40.68
2018-07-01T10:09:11.658Z,42.37
2018-07-01T10:11:40.707Z,41.71
2018-07-01T10:14:09.270Z,40.19
2018-07-01T10:16:38.054Z,41.45
2018-07-01T10:19:06.353Z,41.70
2018-07-01T10:21:35.627Z,41.54
2018-07-01T10:24:03.709Z,39.75
2018-07-01T10:26:31.727Z,39.70
2018-07-01T10:29:04.262Z,38.54
2018-07-01T10:31:32.850Z,40.43
2018-07-01T10:34:00.967Z,40.67
2018-07-01T10:36:29.107Z,41.01
2018-07-01T10:38:57.090Z,40.07
2018-07-01T10:41:25.206Z,40.00
2018-07-01T10:43:54.170Z,40.66
2018-07-01T10:46:22.222Z,40.43
2018-07-01T10:48:50.335Z,39.48
2018-07-01T10:51:18.618Z,38.71
2018-07-01T10:53:47.833Z,39.73
2018-07-01T10:56:15.871Z,39.82
2018-07-01T10:58:43.990Z,41.14
2018-07-01T11:01:12.350Z,40.40
2018-07-01T11:03:40.923Z,39.08
2018-07-01T11:06:08.991Z,39.92
2018-07-01T11:08:38.188Z,40.01
2018-07-01T11:11:06.422Z,38.99
2018-07-01T11:13:34.428Z,37.94
2018-07-01T11:16:02.497Z,40.00
2018-07-01T11:18:32.090Z,39.32
2018-07-01T11:21:01.280Z,39.17
2018-07-01T11:23:30.315Z,40.34
2018-07-01T11:25:59.409Z,39.80
2018-07-01T11:28:27.438Z,38.78
2018-07-01T11:30:55.564Z,37.78
2018-07-01T11:33:23.767Z,37.80
2018-07-01T11:35:52.022Z,37.42
2018-07-01T11:38:20.161Z,37.52
2018-07-01T11:40:48.296Z,37.48
2018-07-01T11:43:17.346Z,38.49
2018-07-01T11:45:46.100Z,37.91
2018-07-01T11:48:15.191Z,36.07
2018-07-01T11:50:43.271Z,36.17
2018-07-01T11:53:11.314Z,34.99
2018-07-01T11:55:39.398Z,35.94
2018-07-01T11:58:07.608Z,36.65
2018-07-01T12:00:35.752Z,34.86
2018-07-01T12:03:04.384Z,35.63
2018-07-01T12:05:32.882Z,34.96
2018-07-01T12:08:01.087Z,34.97
2018-07-01T12:10:29.071Z,35.09
2018-07-01T12:12:57.084Z,34.59
2018-07-01T12:15:25.069Z,34.52
2018-07-01T12:17:53.187Z,33.91
2018-07-01T12:20:21.222Z,33.34
2018-07-01T12:22:49.227Z,34.45
2018-07-01T12:25:17.651Z,33.78
2018-07-01T12:27:46.215Z,33.74
2018-07-01T12:30:14.441Z,33.92
2018-07-01T12:32:42.511Z,33.34
2018-07-01T12:35:11.143Z,33.40
2018-07-01T12:37:39.252Z,30.83
2018-07-01T12:40:07.588Z,29.38
2018-07-01T12:42:35.966Z,29.24
2018-07-01T12:45:04.288Z,28.19
2018-07-01T12:47:33.052Z,28.74
2018-07-01T12:50:01.575Z,28.93
2018-07-01T12:52:29.681Z,27.10
2018-07-01T12:54:57.661Z,27.72
2018-07-01T12:57:25.697Z,25.18
2018-07-01T12:59:54.916Z,26.24
2018-07-01T13:02:23.176Z,26.09
2018-07-01T13:04:51.253Z,25.27
2018-07-01T13:07:19.439Z,25.83
2018-07-01T13:09:47.673Z,26.40
2018-07-01T13:12:15.775Z,27.62
2018-07-01T13:14:44.144Z,29.76
2018-07-01T13:17:12.182Z,27.47
2018-07-01T13:19:40.511Z,27.69
2018-07-01T13:22:08.659Z,28.75
2018-07-01T13:24:36.836Z,28.04
2018-07-01T13:27:05.197Z,29.29
2018-07-01T13:29:33.368Z,29.03
2018-07-01T13:32:01.810Z,29.67
2018-07-01T13:34:29.948Z,29.39
2018-07-01T13:36:58.077Z,26.59
2018-07-01T13:39:26.456Z,27.91
2018-07-01T13:41:54.404Z,27.53
2018-07-01T13:44:23.060Z,26.99
2018-07-01T13:46:51.123Z,28.14
2018-07-01T13:49:19.991Z,27.80
2018-07-01T13:51:48.037Z,28.69
2018-07-01T13:54:16.204Z,28.89
2018-07-01T13:56:44.459Z,28.02
2018-07-01T13:59:12.534Z,26.87
2018-07-01T14:01:40.574Z,26.77
2018-07-01T14:04:08.720Z,27.78
2018-07-01T14:06:36.942Z,28.23
2018-07-01T14:09:08.078Z,28.74
2018-07-01T14:11:36.226Z,27.97
2018-07-01T14:14:04.330Z,27.06
2018-07-01T14:16:32.444Z,26.51
2018-07-01T14:19:00.531Z,26.54
2018-07-01T14:21:28.581Z,27.10
2018-07-01T14:23:57.212Z,25.33
2018-07-01T14:26:25.270Z,24.91
2018-07-01T14:28:53.822Z,24.88
2018-07-01T14:31:21.808Z,25.01
2018-07-01T14:33:49.853Z,25.15
2018-07-01T14:36:17.997Z,25.86
2018-07-01T14:38:46.229Z,25.33
2018-07-01T14:41:14.380Z,25.90
2018-07-01T14:43:42.402Z,25.62
2018-07-01T14:46:10.407Z,25.11
2018-07-01T14:48:38.421Z,24.21
2018-07-01T14:51:06.743Z,25.19
2018-07-01T14:53:34.839Z,24.43
2018-07-01T14:56:03.862Z,24.63
2018-07-01T14:58:32.218Z,24.76
2018-07-01T15:01:00.296Z,24.26
2018-07-01T15:03:28.457Z,24.33
2018-07-01T15:05:56.418Z,24.98
2018-07-01T15:08:26.633Z,25.67
2018-07-01T15:10:56.241Z,26.02
2018-07-01T15:13:24.200Z,25.86
2018-07-01T15:15:52.183Z,25.43
2018-07-01T15:18:23.892Z,25.86
2018-07-01T15:20:51.862Z,25.48
2018-07-01T15:23:19.965Z,24.67
2018-07-01T15:25:47.902Z,24.72
2018-07-01T15:28:15.900Z,25.73
2018-07-01T15:30:44.011Z,25.63
2018-07-01T15:33:12.111Z,25.73
2018-07-01T15:35:40.187Z,25.45
2018-07-01T15:38:08.361Z,25.03
2018-07-01T15:40:36.516Z,25.21
2018-07-01T15:43:04.592Z,24.44
2018-07-01T15:45:33.579Z,25.25
2018-07-01T15:48:01.618Z,25.32
2018-07-01T15:50:29.929Z,24.78
2018-07-01T15:52:58.018Z,25.02
2018-07-01T15:55:25.998Z,24.92
2018-07-01T15:57:53.992Z,25.37
2018-07-01T16:00:21.994Z,25.50
2018-07-01T16:02:50.062Z,26.16
2018-07-01T16:05:18.046Z,26.12
2018-07-01T16:07:46.046Z,26.97
2018-07-01T16:10:14.121Z,26.90
2018-07-01T16:12:42.124Z,27.35
2018-07-01T16:15:13.154Z,27.31
2018-07-01T16:17:41.540Z,28.27
2018-07-01T16:20:09.588Z,27.06
2018-07-01T16:22:37.670Z,27.53
2018-07-01T16:25:11.497Z,27.48
2018-07-01T16:27:47.050Z,28.57
2018-07-01T16:30:15.307Z,28.13
2018-07-01T16:32:43.683Z,28.23
2018-07-01T16:35:11.763Z,29.48
2018-07-01T16:37:39.913Z,29.24
2018-07-01T16:40:08.220Z,30.30
2018-07-01T16:42:36.238Z,31.40
2018-07-01T16:45:04.822Z,33.08
2018-07-01T16:47:32.921Z,33.76
2018-07-01T16:50:00.955Z,33.82
2018-07-01T16:52:29.159Z,34.08
2018-07-01T16:54:57.066Z,34.60
2018-07-01T16:57:25.179Z,34.56
2018-07-01T16:59:53.149Z,35.63
2018-07-01T17:02:21.156Z,36.72
2018-07-01T17:04:49.203Z,37.41
2018-07-01T17:07:17.287Z,38.89
2018-07-01T17:09:45.293Z,38.49
2018-07-01T17:12:13.777Z,39.33
2018-07-01T17:14:41.871Z,40.54
2018-07-01T17:17:10.521Z,41.66
2018-07-01T17:19:38.511Z,41.54
2018-07-01T17:22:06.578Z,43.64
2018-07-01T17:24:34.603Z,41.59
2018-07-01T17:27:02.614Z,40.64
2018-07-01T17:29:30.634Z,39.50
2018-07-01T17:32:04.034Z,39.81
2018-07-01T17:34:32.142Z,40.70
2018-07-01T17:37:00.226Z,41.58
2018-07-01T17:39:28.417Z,43.52
2018-07-01T17:41:57.072Z,42.75
2018-07-01T17:44:25.018Z,42.50
2018-07-01T17:46:53.044Z,43.78
2018-07-01T17:49:21.073Z,44.69
2018-07-01T17:51:49.761Z,45.69
2018-07-01T17:54:17.752Z,46.01
2018-07-01T17:56:45.701Z,46.41
2018-07-01T17:59:14.039Z,47.42
2018-07-01T18:01:41.970Z,47.62
2018-07-01T18:04:10.001Z,48.47
2018-07-01T18:06:37.965Z,47.13
2018-07-01T18:09:08.257Z,45.71
2018-07-01T18:11:36.471Z,44.77
2018-07-01T18:14:04.656Z,44.98
2018-07-01T18:16:32.776Z,43.84
2018-07-01T18:19:00.777Z,44.16
2018-07-01T18:21:48.141Z,44.16
2018-07-01T18:24:27.527Z,44.24
2018-07-01T18:26:25.156Z,44.82
2018-07-01T18:29:02.564Z,45.29
2018-07-01T18:31:21.221Z,46.36
2018-07-01T18:33:49.282Z,47.24
2018-07-01T18:36:17.407Z,47.47
2018-07-01T18:38:45.771Z,46.87
2018-07-01T18:41:13.747Z,48.55
2018-07-01T18:43:41.742Z,49.08
2018-07-01T18:46:09.912Z,47.58
2018-07-01T18:48:37.904Z,46.66
2018-07-01T18:51:05.968Z,48.75
2018-07-01T18:53:33.973Z,48.76
2018-07-01T18:56:02.037Z,50.10
2018-07-01T18:58:30.393Z,49.86
2018-07-01T19:00:58.452Z,47.81
2018-07-01T19:03:26.467Z,47.43
2018-07-01T19:05:54.483Z,47.20
2018-07-01T19:08:23.479Z,47.36
2018-07-01T19:10:51.511Z,46.96
2018-07-01T19:13:19.499Z,47.42
2018-07-01T19:15:47.442Z,46.56
2018-07-01T19:18:15.500Z,47.00
2018-07-01T19:20:43.570Z,46.83
2018-07-01T19:23:11.553Z,45.93
2018-07-01T19:25:39.687Z,47.10
2018-07-01T19:28:07.789Z,47.91
2018-07-01T19:30:35.924Z,46.67
2018-07-01T19:33:03.966Z,47.19
2018-07-01T19:35:32.085Z,47.57
2018-07-01T19:38:02.154Z,47.69
2018-07-01T19:40:30.552Z,47.57
2018-07-01T19:42:58.734Z,48.28
2018-07-01T19:45:26.900Z,48.23
2018-07-01T19:47:55.029Z,48.32
2018-07-01T19:50:22.976Z,48.41
2018-07-01T19:52:50.957Z,49.14
2018-07-01T19:55:19.090Z,48.57
2018-07-01T19:57:47.149Z,48.99
2018-07-01T20:00:17.902Z,48.44
2018-07-01T20:02:47.052Z,48.90
2018-07-01T20:05:17.201Z,48.81
2018-07-01T20:07:45.346Z,49.24
2018-07-01T20:10:13.565Z,49.62
2018-07-01T20:12:41.836Z,49.37
2018-07-01T20:15:09.926Z,48.77
2018-07-01T20:17:37.923Z,48.03
2018-07-01T20:20:06.124Z,48.36
2018-07-01T20:22:34.246Z,47.69
2018-07-01T20:25:02.406Z,47.42
2018-07-01T20:27:30.460Z,48.02
2018-07-01T20:29:58.459Z,47.49
2018-07-01T20:32:26.413Z,47.93
2018-07-01T20:34:54.414Z,48.35
2018-07-01T20:37:22.415Z,48.54
2018-07-01T20:39:50.485Z,49.25
2018-07-01T20:42:18.531Z,50.09
2018-07-01T20:44:46.926Z,50.38
2018-07-01T20:47:15.174Z,51.25
2018-07-01T20:49:43.203Z,52.27
2018-07-01T20:52:11.208Z,52.93
2018-07-01T20:54:39.163Z,53.88
2018-07-01T20:57:07.229Z,53.64
2018-07-01T20:59:35.250Z,54.66
2018-07-01T21:02:03.428Z,55.27
2018-07-01T21:04:31.357Z,55.27
2018-07-01T21:06:59.311Z,56.46
2018-07-01T21:09:27.266Z,56.88
2018-07-01T21:11:55.263Z,56.93
2018-07-01T21:14:23.267Z,57.32
2018-07-01T21:16:51.264Z,56.90
2018-07-01T21:19:19.222Z,57.23
2018-07-01T21:21:47.199Z,57.24
2018-07-01T21:24:15.203Z,57.98
2018-07-01T21:26:43.493Z,58.23
2018-07-01T21:29:11.580Z,58.09
2018-07-01T21:31:39.595Z,57.95
2018-07-01T21:34:07.540Z,58.50
2018-07-01T21:36:35.575Z,57.89
2018-07-01T21:39:05.639Z,57.71
2018-07-01T21:41:33.647Z,57.67
2018-07-01T21:44:01.728Z,57.97
2018-07-01T21:46:29.842Z,57.80
2018-07-01T21:48:57.807Z,59.07
2018-07-01T21:51:25.835Z,59.36
2018-07-01T21:53:53.862Z,59.12
2018-07-01T21:56:21.906Z,59.77
2018-07-01T21:58:49.967Z,59.59
2018-07-01T22:01:18.057Z,59.37
2018-07-01T22:03:46.095Z,59.75
2018-07-01T22:06:14.115Z,60.06
2018-07-01T22:08:42.082Z,59.63
2018-07-01T22:11:52.539Z,58.80
2018-07-01T22:14:23.819Z,59.32
2018-07-01T22:16:51.835Z,59.54
2018-07-01T22:19:20.441Z,59.25
2018-07-01T22:21:49.783Z,58.00
2018-07-01T22:24:17.928Z,57.27
2018-07-01T22:26:45.994Z,57.11
2018-07-01T22:29:15.109Z,56.51
2018-07-01T22:31:43.184Z,58.52
2018-07-01T22:34:12.460Z,59.21
2018-07-01T22:36:41.053Z,59.98
2018-07-01T22:39:12.779Z,59.24
2018-07-01T22:41:41.246Z,58.24
2018-07-01T22:44:09.252Z,58.32
2018-07-01T22:46:37.321Z,58.48
2018-07-01T22:49:05.795Z,57.73
2018-07-01T22:51:34.585Z,59.22
2018-07-01T22:54:03.227Z,58.47
2018-07-01T22:56:31.933Z,58.13
2018-07-01T22:58:59.936Z,57.46
2018-07-01T23:01:28.376Z,57.33
2018-07-01T23:03:56.453Z,56.86
2018-07-01T23:06:24.824Z,58.10
2018-07-01T23:08:52.830Z,58.07
2018-07-01T23:11:20.970Z,57.67
2018-07-01T23:13:49.040Z,58.60
2018-07-01T23:16:17.058Z,58.29
2018-07-01T23:18:45.075Z,58.23
2018-07-01T23:21:13.694Z,59.09
2018-07-01T23:23:41.789Z,58.86
2018-07-01T23:26:09.862Z,59.43
2018-07-01T23:28:37.926Z,59.50
2018-07-01T23:31:06.062Z,58.90
2018-07-01T23:33:34.170Z,59.40
2018-07-01T23:36:02.182Z,59.21
2018-07-01T23:38:30.192Z,59.52
2018-07-01T23:40:58.258Z,60.22
2018-07-01T23:43:26.393Z,60.52
2018-07-01T23:45:54.461Z,60.94
2018-07-01T23:48:22.567Z,61.77
2018-07-01T23:50:50.635Z,62.41
2018-07-01T23:53:18.674Z,61.39
2018-07-01T23:55:47.016Z,61.82
2018-07-01T23:58:15.056Z,61.61
